Falcon, North Carolina
Current Conditions -  °F | °C
As of 2:55 PM on Saturday 20 Dec 2014 (Local Time) from KHRJ Reporting Station
Overcast Overcast  
Wind Chill: 40°   Ceiling: 4600
Heat Index: 40°   Visibility: 10mi
Dew Point: 35°   Wind: 3mph
Humidity: 81%   Direction: 60°ENE
Pressure: 30.25"   Gusts: NA
Location:  35.19°N, 78.65°W
Report Text: KHRJ 201955Z AUTO 06003KT 10SM SCT040 OVC046 05/02 A3025 RMK AO2 T00450015
Loading
Personal Weather Stations






























Interactive Weather Map New forecast layout! Learn more

10-Day Weather Forecast

Advertisements
Track Severe Weather on mobile